createdAt,value
2019-05-16T00:02:08.222Z,8.40
2019-05-16T00:04:37.876Z,8.30
2019-05-16T00:07:08.118Z,8.30
2019-05-16T00:09:38.181Z,8.20
2019-05-16T00:12:08.738Z,8.20
2019-05-16T00:14:38.621Z,8.20
2019-05-16T00:17:08.340Z,8.10
2019-05-16T00:19:38.122Z,8.00
2019-05-16T00:22:08.772Z,8.00
2019-05-16T00:24:38.164Z,8.00
2019-05-16T00:27:08.347Z,7.90
2019-05-16T00:29:38.295Z,7.90
2019-05-16T00:32:08.553Z,7.90
2019-05-16T00:34:38.484Z,7.80
2019-05-16T00:37:08.635Z,7.80
2019-05-16T00:39:38.793Z,7.80
2019-05-16T00:42:08.760Z,7.80
2019-05-16T00:44:38.693Z,7.80
2019-05-16T00:47:08.758Z,7.80
2019-05-16T00:49:38.547Z,7.70
2019-05-16T00:52:07.824Z,7.70
2019-05-16T00:54:38.375Z,7.70
2019-05-16T00:57:08.522Z,7.70
2019-05-16T00:59:38.710Z,7.60
2019-05-16T01:02:08.992Z,7.60
2019-05-16T01:04:38.199Z,7.60
2019-05-16T01:07:08.152Z,7.60
2019-05-16T01:09:38.540Z,7.60
2019-05-16T01:12:08.452Z,7.60
2019-05-16T01:14:38.482Z,7.60
2019-05-16T01:17:08.605Z,7.60
2019-05-16T01:19:38.088Z,7.60
2019-05-16T01:22:08.308Z,7.60
2019-05-16T01:24:41.159Z,7.60
2019-05-16T01:27:08.291Z,7.60
2019-05-16T01:29:38.518Z,7.60
2019-05-16T01:32:08.374Z,7.60
2019-05-16T01:34:37.861Z,7.60
2019-05-16T01:37:08.242Z,7.50
2019-05-16T01:39:38.210Z,7.50
2019-05-16T01:42:07.990Z,7.50
2019-05-16T01:44:38.171Z,7.50
2019-05-16T01:47:09.008Z,7.50
2019-05-16T01:49:38.152Z,7.50
2019-05-16T01:52:08.535Z,7.50
2019-05-16T01:54:38.901Z,7.50
2019-05-16T01:57:08.183Z,7.50
2019-05-16T01:59:37.965Z,7.50
2019-05-16T02:02:08.364Z,7.50
2019-05-16T02:04:37.975Z,7.50
2019-05-16T02:07:08.559Z,7.50
2019-05-16T02:09:38.382Z,7.40
2019-05-16T02:12:10.427Z,7.50
2019-05-16T02:14:38.787Z,7.50
2019-05-16T02:17:10.889Z,7.50
2019-05-16T02:19:38.565Z,7.50
2019-05-16T02:22:08.897Z,7.50
2019-05-16T02:24:38.842Z,7.40
2019-05-16T02:27:09.520Z,7.40
2019-05-16T02:29:40.127Z,7.40
2019-05-16T02:32:11.472Z,7.40
2019-05-16T02:34:41.714Z,7.40
2019-05-16T02:37:23.579Z,7.40
2019-05-16T02:39:41.151Z,7.50
2019-05-16T02:42:11.825Z,7.50
2019-05-16T02:44:41.440Z,7.50
2019-05-16T02:47:10.967Z,7.60
2019-05-16T02:49:42.025Z,7.70
2019-05-16T02:52:10.958Z,7.70
2019-05-16T02:54:41.313Z,7.80
2019-05-16T02:57:11.238Z,7.90
2019-05-16T02:59:41.621Z,8.00
2019-05-16T03:02:11.569Z,8.00
2019-05-16T03:04:44.021Z,8.10
2019-05-16T03:07:30.283Z,8.20
2019-05-16T03:09:43.866Z,8.20
2019-05-16T03:12:12.989Z,8.20
2019-05-16T03:14:42.728Z,8.30
2019-05-16T03:17:13.295Z,8.40
2019-05-16T03:19:43.993Z,8.40
2019-05-16T03:22:15.824Z,8.50
2019-05-16T03:24:44.790Z,8.50
2019-05-16T03:27:13.662Z,8.60
2019-05-16T03:29:42.823Z,8.60
2019-05-16T03:32:13.889Z,8.70
2019-05-16T03:34:44.069Z,8.70
2019-05-16T03:37:14.405Z,8.70
2019-05-16T03:39:43.332Z,8.70
2019-05-16T03:42:12.910Z,8.70
2019-05-16T03:44:41.869Z,8.70
2019-05-16T03:47:11.218Z,8.60
2019-05-16T03:49:42.283Z,8.60
2019-05-16T03:52:11.447Z,8.60
2019-05-16T03:54:42.002Z,8.60
2019-05-16T03:57:11.682Z,8.60
2019-05-16T03:59:40.962Z,8.60
2019-05-16T04:02:10.828Z,8.60
2019-05-16T04:04:41.787Z,8.60
2019-05-16T04:07:11.068Z,8.70
2019-05-16T04:09:41.124Z,8.70
2019-05-16T04:12:10.920Z,8.70
2019-05-16T04:14:40.975Z,8.70
2019-05-16T04:17:10.881Z,8.80
2019-05-16T04:19:41.563Z,8.80
2019-05-16T04:22:15.543Z,8.80
2019-05-16T04:24:45.449Z,8.90
2019-05-16T04:27:14.287Z,8.90
2019-05-16T04:29:43.303Z,8.90
2019-05-16T04:32:12.139Z,9.00
2019-05-16T04:34:41.794Z,9.00
2019-05-16T04:37:11.519Z,9.10
2019-05-16T04:39:41.461Z,9.20
2019-05-16T04:42:11.099Z,9.20
2019-05-16T04:44:41.717Z,9.30
2019-05-16T04:47:11.132Z,9.30
2019-05-16T04:49:41.140Z,9.40
2019-05-16T04:52:11.257Z,9.40
2019-05-16T04:54:41.872Z,9.50
2019-05-16T04:57:11.815Z,9.60
2019-05-16T04:59:41.889Z,9.60
2019-05-16T05:02:12.212Z,9.70
2019-05-16T05:04:41.558Z,9.80
2019-05-16T05:07:11.169Z,9.80
2019-05-16T05:09:41.012Z,10.00
2019-05-16T05:12:11.397Z,10.00
2019-05-16T05:14:41.550Z,10.10
2019-05-16T05:17:10.839Z,10.20
2019-05-16T05:19:41.480Z,10.30
2019-05-16T05:22:10.547Z,10.40
2019-05-16T05:24:40.566Z,10.50
2019-05-16T05:27:10.491Z,10.60
2019-05-16T05:29:39.926Z,10.70
2019-05-16T05:32:14.000Z,10.80
2019-05-16T05:34:39.919Z,10.90
2019-05-16T05:37:12.557Z,11.00
2019-05-16T05:39:39.765Z,11.10
2019-05-16T05:42:10.557Z,11.20
2019-05-16T05:44:40.132Z,11.30
2019-05-16T05:47:10.807Z,11.40
2019-05-16T05:49:40.475Z,11.40
2019-05-16T05:52:12.018Z,11.50
2019-05-16T05:54:40.759Z,11.60
2019-05-16T05:57:09.988Z,11.70
2019-05-16T05:59:40.486Z,11.80
2019-05-16T06:02:11.358Z,11.90
2019-05-16T06:04:40.058Z,12.00
2019-05-16T06:07:10.134Z,12.10
2019-05-16T06:09:50.454Z,12.20
2019-05-16T06:12:10.555Z,12.30
2019-05-16T06:14:41.847Z,12.40
2019-05-16T06:17:11.423Z,12.50
2019-05-16T06:19:40.581Z,12.60
2019-05-16T06:22:10.215Z,12.60
2019-05-16T06:24:39.894Z,12.80
2019-05-16T06:27:09.860Z,12.90
2019-05-16T06:29:40.259Z,13.00
2019-05-16T06:32:10.289Z,13.10
2019-05-16T06:34:40.424Z,13.20
2019-05-16T06:37:09.887Z,13.30
2019-05-16T06:39:42.679Z,13.40
2019-05-16T06:42:09.955Z,13.50
2019-05-16T06:44:40.104Z,13.70
2019-05-16T06:47:16.833Z,13.80
2019-05-16T06:49:40.809Z,13.90
2019-05-16T06:52:10.422Z,14.10
2019-05-16T06:54:40.737Z,14.10
2019-05-16T06:57:10.591Z,14.20
2019-05-16T06:59:40.491Z,14.40
2019-05-16T07:02:19.393Z,14.50
2019-05-16T07:04:41.587Z,14.60
2019-05-16T07:07:12.694Z,14.80
2019-05-16T07:09:57.013Z,14.90
2019-05-16T07:12:13.422Z,15.00
2019-05-16T07:14:42.334Z,15.10
2019-05-16T07:17:11.593Z,15.20
2019-05-16T07:19:40.828Z,15.30
2019-05-16T07:22:11.107Z,15.40
2019-05-16T07:24:40.336Z,15.50
2019-05-16T07:27:12.318Z,15.60
2019-05-16T07:29:40.239Z,15.70
2019-05-16T07:32:09.315Z,15.80
2019-05-16T07:34:40.222Z,16.00
2019-05-16T07:37:10.808Z,16.10
2019-05-16T07:39:41.840Z,16.10
2019-05-16T07:42:11.033Z,16.20
2019-05-16T07:44:40.826Z,16.30
2019-05-16T07:47:11.251Z,16.40
2019-05-16T07:49:40.760Z,16.50
2019-05-16T07:52:09.984Z,16.60
2019-05-16T07:54:40.408Z,16.70
2019-05-16T07:57:18.828Z,16.70
2019-05-16T07:59:40.495Z,16.80
2019-05-16T08:02:11.016Z,17.00
2019-05-16T08:04:40.645Z,17.00
2019-05-16T08:07:10.787Z,17.10
2019-05-16T08:09:39.853Z,17.30
2019-05-16T08:12:10.533Z,17.40
2019-05-16T08:14:40.933Z,17.40
2019-05-16T08:17:10.561Z,17.50
2019-05-16T08:19:40.094Z,17.60
2019-05-16T08:22:10.943Z,17.60
2019-05-16T08:24:40.266Z,17.70
2019-05-16T08:27:12.137Z,17.80
2019-05-16T08:29:40.450Z,17.90
2019-05-16T08:32:12.643Z,17.90
2019-05-16T08:34:41.677Z,18.00
2019-05-16T08:37:32.768Z,18.00
2019-05-16T08:39:41.465Z,18.10
2019-05-16T08:42:13.178Z,18.10
2019-05-16T08:44:41.930Z,18.10
2019-05-16T08:47:13.253Z,18.10
2019-05-16T08:49:42.482Z,18.20
2019-05-16T08:52:11.670Z,18.30
2019-05-16T08:54:43.717Z,18.40
2019-05-16T08:57:26.171Z,18.40
2019-05-16T08:59:45.875Z,18.50
2019-05-16T09:02:16.206Z,18.50
2019-05-16T09:04:45.101Z,18.60
2019-05-16T09:07:14.327Z,18.70
2019-05-16T09:09:49.496Z,18.70
2019-05-16T09:12:13.786Z,18.80
2019-05-16T09:14:42.750Z,18.80
2019-05-16T09:17:11.681Z,18.90
2019-05-16T09:19:40.573Z,18.90
2019-05-16T09:22:09.500Z,19.00
2019-05-16T09:24:38.483Z,19.00
2019-05-16T09:27:12.549Z,19.00
2019-05-16T09:29:37.937Z,19.10
2019-05-16T09:32:15.861Z,19.10
2019-05-16T09:34:38.084Z,19.20
2019-05-16T09:37:08.634Z,19.20
2019-05-16T09:39:37.703Z,19.30
2019-05-16T09:42:08.230Z,19.40
2019-05-16T09:44:37.358Z,19.40
2019-05-16T09:47:07.586Z,19.40
2019-05-16T09:49:37.193Z,19.50
2019-05-16T09:52:07.512Z,19.60
2019-05-16T09:54:37.857Z,19.60
2019-05-16T09:57:07.093Z,19.70
2019-05-16T09:59:37.067Z,19.80
2019-05-16T10:02:07.253Z,19.80
2019-05-16T10:04:36.916Z,19.80
2019-05-16T10:07:06.665Z,19.80
2019-05-16T10:09:42.124Z,19.90
2019-05-16T10:12:14.347Z,20.00
2019-05-16T10:14:37.783Z,20.00
2019-05-16T10:17:08.131Z,20.00
2019-05-16T10:19:37.119Z,20.00
2019-05-16T10:22:07.314Z,20.00
2019-05-16T10:24:37.532Z,20.00
2019-05-16T10:27:06.759Z,20.00
2019-05-16T10:29:37.746Z,20.00
2019-05-16T10:32:07.599Z,20.10
2019-05-16T10:34:37.100Z,20.10
2019-05-16T10:37:06.046Z,20.10
2019-05-16T10:39:37.258Z,20.10
2019-05-16T10:42:06.841Z,20.20
2019-05-16T10:44:38.499Z,20.20
2019-05-16T10:47:07.553Z,20.30
2019-05-16T10:49:40.906Z,20.40
2019-05-16T10:52:07.460Z,20.40
2019-05-16T10:54:37.009Z,20.50
2019-05-16T10:57:08.121Z,20.50
2019-05-16T10:59:57.898Z,20.50
2019-05-16T11:02:07.578Z,20.60
2019-05-16T11:04:52.707Z,20.60
2019-05-16T11:07:07.233Z,20.60
2019-05-16T11:09:39.139Z,20.60
2019-05-16T11:12:06.700Z,20.70
2019-05-16T11:14:37.031Z,20.70
2019-05-16T11:17:11.651Z,20.70
2019-05-16T11:19:37.229Z,20.70
2019-05-16T11:22:06.227Z,20.70
2019-05-16T11:24:37.563Z,20.80
2019-05-16T11:27:07.512Z,20.90
2019-05-16T11:29:36.682Z,21.00
2019-05-16T11:32:06.886Z,20.90
2019-05-16T11:34:37.416Z,20.90
2019-05-16T11:37:07.010Z,20.90
2019-05-16T11:39:37.140Z,20.90
2019-05-16T11:42:07.958Z,20.90
2019-05-16T11:44:38.112Z,20.90
2019-05-16T11:47:08.317Z,20.90
2019-05-16T11:49:37.512Z,21.00
2019-05-16T11:52:07.260Z,21.20
2019-05-16T11:54:37.350Z,21.10
2019-05-16T11:57:07.047Z,21.20
2019-05-16T11:59:37.360Z,21.20
2019-05-16T12:02:06.646Z,21.20
2019-05-16T12:04:37.508Z,21.20
2019-05-16T12:07:07.653Z,21.30
2019-05-16T12:09:47.010Z,21.40
2019-05-16T12:12:08.675Z,21.50
2019-05-16T12:14:37.964Z,21.50
2019-05-16T12:17:07.473Z,21.60
2019-05-16T12:19:43.597Z,21.50
2019-05-16T12:22:07.212Z,21.60
2019-05-16T12:24:38.721Z,21.70
2019-05-16T12:27:08.340Z,21.70
2019-05-16T12:29:37.467Z,21.80
2019-05-16T12:32:07.652Z,21.80
2019-05-16T12:34:37.118Z,21.80
2019-05-16T12:37:07.387Z,21.90
2019-05-16T12:39:37.921Z,21.90
2019-05-16T12:42:08.334Z,21.90
2019-05-16T12:44:37.750Z,21.90
2019-05-16T12:47:07.680Z,21.90
2019-05-16T12:49:36.735Z,22.00
2019-05-16T12:52:06.798Z,22.00
2019-05-16T12:54:36.958Z,22.00
2019-05-16T12:57:06.201Z,22.10
2019-05-16T12:59:36.862Z,22.10
2019-05-16T13:02:07.389Z,22.10
2019-05-16T13:04:37.783Z,22.20
2019-05-16T13:07:09.504Z,22.10
2019-05-16T13:09:37.290Z,22.00
2019-05-16T13:12:06.901Z,22.00
2019-05-16T13:14:40.159Z,22.10
2019-05-16T13:17:07.242Z,22.10
2019-05-16T13:19:43.250Z,22.00
2019-05-16T13:22:07.491Z,22.00
2019-05-16T13:24:38.424Z,22.00
2019-05-16T13:27:08.446Z,22.00
2019-05-16T13:29:37.584Z,22.00
2019-05-16T13:32:07.633Z,22.10
2019-05-16T13:34:38.091Z,22.10
2019-05-16T13:37:07.630Z,22.10
2019-05-16T13:39:36.778Z,22.10
2019-05-16T13:42:08.141Z,22.10
2019-05-16T13:44:37.625Z,22.20
2019-05-16T13:47:07.662Z,22.30
2019-05-16T13:49:38.446Z,22.30
2019-05-16T13:52:07.374Z,22.50
2019-05-16T13:54:36.442Z,22.40
2019-05-16T13:57:07.029Z,22.50
2019-05-16T13:59:37.378Z,22.50
2019-05-16T14:02:08.051Z,22.50
2019-05-16T14:04:37.326Z,22.50
2019-05-16T14:07:07.661Z,22.60
2019-05-16T14:09:37.780Z,22.60
2019-05-16T14:12:06.959Z,22.60
2019-05-16T14:14:41.351Z,22.70
2019-05-16T14:17:14.021Z,22.80
2019-05-16T14:19:37.656Z,22.80
2019-05-16T14:22:07.699Z,23.00
2019-05-16T14:24:37.237Z,23.10
2019-05-16T14:27:06.776Z,23.20
2019-05-16T14:29:37.661Z,23.20
2019-05-16T14:32:10.048Z,23.10
2019-05-16T14:34:38.572Z,23.10
2019-05-16T14:37:07.413Z,23.00
2019-05-16T14:39:38.787Z,23.00
2019-05-16T14:42:06.938Z,23.00
2019-05-16T14:44:57.624Z,22.90
2019-05-16T14:47:06.969Z,23.00
2019-05-16T14:49:37.409Z,23.00
2019-05-16T14:52:06.607Z,23.00
2019-05-16T14:54:37.720Z,23.10
2019-05-16T14:57:06.087Z,23.00
2019-05-16T14:59:36.472Z,23.10
2019-05-16T15:02:07.134Z,23.10
2019-05-16T15:04:37.583Z,23.10
2019-05-16T15:07:07.081Z,23.10
2019-05-16T15:09:38.081Z,23.10
2019-05-16T15:12:06.987Z,23.30
2019-05-16T15:14:37.499Z,23.30
2019-05-16T15:17:07.117Z,23.30
2019-05-16T15:19:36.070Z,23.30
2019-05-16T15:22:07.642Z,23.30
2019-05-16T15:24:37.056Z,23.40
2019-05-16T15:27:08.234Z,23.40
2019-05-16T15:29:37.741Z,23.30
2019-05-16T15:32:07.080Z,23.30
2019-05-16T15:34:38.066Z,23.30
2019-05-16T15:37:07.797Z,23.30
2019-05-16T15:39:37.504Z,23.30
2019-05-16T15:42:08.226Z,23.20
2019-05-16T15:44:37.291Z,23.20
2019-05-16T15:47:08.039Z,23.20
2019-05-16T15:49:37.740Z,23.20
2019-05-16T15:52:07.293Z,23.20
2019-05-16T15:54:37.661Z,23.20
2019-05-16T15:57:06.861Z,23.20
2019-05-16T15:59:37.649Z,23.30
2019-05-16T16:02:07.346Z,23.30
2019-05-16T16:04:37.348Z,23.40
2019-05-16T16:07:07.684Z,23.50
2019-05-16T16:09:37.817Z,23.60
2019-05-16T16:12:10.451Z,23.60
2019-05-16T16:14:37.636Z,23.60
2019-05-16T16:17:06.781Z,23.70
2019-05-16T16:19:37.155Z,23.80
2019-05-16T16:22:07.711Z,23.70
2019-05-16T16:24:36.956Z,23.60
2019-05-16T16:27:08.138Z,23.70
2019-05-16T16:29:37.070Z,23.80
2019-05-16T16:32:06.529Z,23.90
2019-05-16T16:34:36.745Z,24.00
2019-05-16T16:37:07.593Z,24.10
2019-05-16T16:39:37.774Z,24.30
2019-05-16T16:42:07.681Z,24.30
2019-05-16T16:44:36.679Z,24.30
2019-05-16T16:47:06.732Z,24.40
2019-05-16T16:49:39.529Z,24.40
2019-05-16T16:52:07.575Z,24.40
2019-05-16T16:54:37.123Z,24.50
2019-05-16T16:57:07.771Z,24.50
2019-05-16T16:59:37.421Z,24.60
2019-05-16T17:02:07.966Z,24.70
2019-05-16T17:04:38.858Z,24.80
2019-05-16T17:07:07.391Z,24.80
2019-05-16T17:09:37.187Z,24.90
2019-05-16T17:12:06.693Z,25.00
2019-05-16T17:14:37.015Z,25.10
2019-05-16T17:17:07.057Z,25.40
2019-05-16T17:19:36.728Z,25.70
2019-05-16T17:22:14.699Z,26.10
2019-05-16T17:24:36.645Z,26.30
2019-05-16T17:27:07.811Z,26.60
2019-05-16T17:29:36.989Z,27.20
2019-05-16T17:32:09.934Z,27.70
2019-05-16T17:34:37.284Z,28.00
2019-05-16T17:37:09.432Z,28.40
2019-05-16T17:39:36.981Z,28.80
2019-05-16T17:42:07.625Z,29.20
2019-05-16T17:44:36.521Z,29.50
2019-05-16T17:47:07.071Z,29.90
2019-05-16T17:49:37.171Z,30.40
2019-05-16T17:52:06.940Z,30.60
2019-05-16T17:54:37.350Z,30.60
2019-05-16T17:57:07.435Z,30.50
2019-05-16T17:59:37.929Z,30.30
2019-05-16T18:02:07.040Z,30.20
2019-05-16T18:04:37.613Z,30.50
2019-05-16T18:07:07.342Z,30.70
2019-05-16T18:09:36.850Z,31.10
2019-05-16T18:12:06.924Z,31.50
2019-05-16T18:14:37.269Z,31.50
2019-05-16T18:17:07.622Z,31.60
2019-05-16T18:19:38.333Z,31.50
2019-05-16T18:22:07.187Z,31.50
2019-05-16T18:24:37.055Z,31.50
2019-05-16T18:27:06.799Z,31.50
2019-05-16T18:29:36.532Z,31.60
2019-05-16T18:32:06.942Z,31.60
2019-05-16T18:34:37.698Z,31.30
2019-05-16T18:37:06.969Z,30.50
2019-05-16T18:39:36.868Z,29.80
2019-05-16T18:42:06.043Z,29.10
2019-05-16T18:44:36.597Z,28.40
2019-05-16T18:47:10.429Z,27.80
2019-05-16T18:49:36.835Z,27.20
2019-05-16T18:52:06.549Z,26.60
2019-05-16T18:54:37.589Z,26.10
2019-05-16T18:57:06.993Z,25.50
2019-05-16T18:59:36.885Z,25.00
2019-05-16T19:02:09.735Z,24.60
2019-05-16T19:04:37.910Z,24.20
2019-05-16T19:07:07.841Z,23.90
2019-05-16T19:09:37.551Z,23.60
2019-05-16T19:12:06.708Z,23.30
2019-05-16T19:14:36.901Z,22.90
2019-05-16T19:17:20.673Z,22.60
2019-05-16T19:19:37.662Z,22.30
2019-05-16T19:22:06.758Z,22.00
2019-05-16T19:24:35.645Z,21.80
2019-05-16T19:27:06.539Z,21.50
2019-05-16T19:29:36.860Z,21.30
2019-05-16T19:32:06.664Z,21.10
2019-05-16T19:34:35.927Z,20.90
2019-05-16T19:37:06.793Z,20.70
2019-05-16T19:39:37.287Z,20.40
2019-05-16T19:42:06.512Z,20.20
2019-05-16T19:44:37.072Z,20.00
2019-05-16T19:47:07.107Z,19.80
2019-05-16T19:49:37.030Z,19.50
2019-05-16T19:52:07.252Z,19.40
2019-05-16T19:54:36.513Z,19.20
2019-05-16T19:57:07.261Z,19.00
2019-05-16T19:59:36.711Z,18.90
2019-05-16T20:02:07.673Z,18.70
2019-05-16T20:04:36.650Z,18.50
2019-05-16T20:07:07.409Z,18.30
2019-05-16T20:09:36.593Z,18.20
2019-05-16T20:12:07.534Z,18.00
2019-05-16T20:14:36.637Z,17.90
2019-05-16T20:17:07.358Z,17.70
2019-05-16T20:19:36.505Z,17.50
2019-05-16T20:22:07.507Z,17.40
2019-05-16T20:24:36.302Z,17.20
2019-05-16T20:27:05.881Z,17.10
2019-05-16T20:29:36.734Z,17.00
2019-05-16T20:32:07.778Z,16.80
2019-05-16T20:34:37.166Z,16.70
2019-05-16T20:37:09.065Z,16.60
2019-05-16T20:39:37.176Z,16.40
2019-05-16T20:42:07.705Z,16.30
2019-05-16T20:44:37.297Z,16.20
2019-05-16T20:47:07.198Z,16.10
2019-05-16T20:49:37.351Z,16.00
2019-05-16T20:52:07.044Z,15.90
2019-05-16T20:54:37.627Z,15.80
2019-05-16T20:57:06.894Z,15.70
2019-05-16T20:59:35.839Z,15.60
2019-05-16T21:02:06.915Z,15.50
2019-05-16T21:04:37.439Z,15.40
2019-05-16T21:07:10.817Z,15.20
2019-05-16T21:09:36.977Z,15.20
2019-05-16T21:12:08.056Z,15.10
2019-05-16T21:14:36.575Z,15.00
2019-05-16T21:17:06.713Z,14.90
2019-05-16T21:19:36.294Z,14.80
2019-05-16T21:22:07.299Z,14.70
2019-05-16T21:24:37.347Z,14.60
2019-05-16T21:27:06.370Z,14.60
2019-05-16T21:29:36.959Z,14.50
2019-05-16T21:32:07.423Z,14.40
2019-05-16T21:34:36.593Z,14.30
2019-05-16T21:37:15.717Z,14.20
2019-05-16T21:39:36.909Z,14.20
2019-05-16T21:42:07.474Z,14.10
2019-05-16T21:44:37.407Z,14.00
2019-05-16T21:47:06.472Z,13.90
2019-05-16T21:49:37.045Z,13.90
2019-05-16T21:52:05.992Z,13.80
2019-05-16T21:54:36.783Z,13.70
2019-05-16T21:57:05.516Z,13.60
2019-05-16T21:59:34.380Z,13.60
2019-05-16T22:02:03.735Z,13.50
2019-05-16T22:04:32.608Z,13.40
2019-05-16T22:07:01.601Z,13.30
2019-05-16T22:09:30.569Z,13.30
2019-05-16T22:11:59.459Z,13.20
2019-05-16T22:14:31.283Z,13.10
2019-05-16T22:17:00.243Z,13.00
2019-05-16T22:19:29.088Z,13.00
2019-05-16T22:21:58.500Z,12.90
2019-05-16T22:24:27.659Z,12.90
2019-05-16T22:26:57.138Z,12.70
2019-05-16T22:29:26.447Z,12.70
2019-05-16T22:31:55.468Z,12.60
2019-05-16T22:34:26.353Z,12.60
2019-05-16T22:36:57.132Z,12.50
2019-05-16T22:39:27.093Z,12.40
2019-05-16T22:41:55.987Z,12.30
2019-05-16T22:44:26.968Z,12.30
2019-05-16T22:46:55.397Z,12.20
2019-05-16T22:49:24.297Z,12.20
2019-05-16T22:51:53.231Z,12.10
2019-05-16T22:54:22.181Z,12.10
2019-05-16T22:56:51.052Z,12.00
2019-05-16T22:59:19.956Z,11.90
2019-05-16T23:01:48.919Z,11.80
2019-05-16T23:04:17.789Z,11.80
2019-05-16T23:06:46.670Z,11.70
2019-05-16T23:09:16.400Z,11.70
2019-05-16T23:11:45.452Z,11.70
2019-05-16T23:14:16.880Z,11.60
2019-05-16T23:16:46.464Z,11.50
2019-05-16T23:19:17.237Z,11.50
2019-05-16T23:21:47.464Z,11.40
2019-05-16T23:24:17.238Z,11.30
2019-05-16T23:26:47.007Z,11.30
2019-05-16T23:29:17.000Z,11.20
2019-05-16T23:31:47.236Z,11.20
2019-05-16T23:34:18.551Z,11.20
2019-05-16T23:36:47.059Z,11.10
2019-05-16T23:39:15.975Z,11.10
2019-05-16T23:41:47.403Z,11.00
2019-05-16T23:44:16.624Z,11.00
2019-05-16T23:46:47.098Z,10.90
2019-05-16T23:49:16.781Z,10.90
2019-05-16T23:51:47.345Z,10.90
2019-05-16T23:54:17.278Z,10.80
2019-05-16T23:56:46.626Z,10.80
2019-05-16T23:59:17.161Z,10.70
